Time;durP1;ratioP1;P1;durP2;ratioP2;P2;SDS_P1;SDS_P2;PMS_P1;PMS_P2;Temp;Humidity;BMP_temperature;BMP_pressure;BME280_temperature;BME280_humidity;BME280_pressure;Samples;Min_cycle;Max_cycle;Signal;HPM_P1;HPM_P2
2020/12/28 00:00:27;;;;;;;0.33;0.33;;;6;99.9;;;;;;;;;
2020/12/28 00:01:01;;;;;;;0.33;0.33;;;6;99.9;;;;;;;;;
2020/12/28 00:02:02;;;;;;;0.5;0.3;;;6;99.9;;;;;;;;;
2020/12/28 00:02:41;;;;;;;0.67;0.47;;;6;99.9;;;;;;;;;
2020/12/28 00:03:01;;;;;;;0.67;0.47;;;6;99.9;;;;;;;;;
2020/12/28 00:03:16;;;;;;;0.67;0.47;;;6;99.9;;;;;;;;;
2020/12/28 00:04:02;;;;;;;0.47;0.47;;;5.9;99.9;;;;;;;;;
2020/12/28 00:04:12;;;;;;;0.47;0.47;;;5.9;99.9;;;;;;;;;
2020/12/28 00:04:53;;;;;;;0.4;0.3;;;5.9;99.9;;;;;;;;;
2020/12/28 00:05:01;;;;;;;0.4;0.3;;;5.9;99.9;;;;;;;;;
2020/12/28 00:05:14;;;;;;;0.4;0.3;;;5.9;99.9;;;;;;;;;
2020/12/28 00:05:29;;;;;;;0.4;0.4;;;5.9;99.9;;;;;;;;;
2020/12/28 00:06:01;;;;;;;0.4;0.4;;;5.9;99.9;;;;;;;;;
2020/12/28 00:06:15;;;;;;;0.4;0.4;;;5.9;99.9;;;;;;;;;
2020/12/28 00:06:25;;;;;;;0.4;0.4;;;5.9;99.9;;;;;;;;;
2020/12/28 00:07:01;;;;;;;0.5;0.47;;;5.7;99.9;;;;;;;;;
2020/12/28 00:07:06;;;;;;;0.5;0.47;;;5.7;99.9;;;;;;;;;
2020/12/28 00:07:17;;;;;;;0.5;0.47;;;5.7;99.9;;;;;;;;;
2020/12/28 00:07:27;;;;;;;0.5;0.47;;;5.7;99.9;;;;;;;;;
2020/12/28 00:07:43;;;;;;;0.37;0.37;;;5.6;99.9;;;;;;;;;
2020/12/28 00:08:01;;;;;;;0.37;0.37;;;5.6;99.9;;;;;;;;;
2020/12/28 00:08:13;;;;;;;0.37;0.37;;;5.6;99.9;;;;;;;;;
2020/12/28 00:08:28;;;;;;;0.37;0.37;;;5.6;99.9;;;;;;;;;
2020/12/28 00:08:39;;;;;;;0.4;0.4;;;5.7;99.9;;;;;;;;;
2020/12/28 00:09:01;;;;;;;0.4;0.4;;;5.7;99.9;;;;;;;;;
2020/12/28 00:09:14;;;;;;;0.4;0.4;;;5.7;99.9;;;;;;;;;
2020/12/28 00:09:30;;;;;;;0.73;0.5;;;5.7;99.9;;;;;;;;;
2020/12/28 00:09:41;;;;;;;0.73;0.5;;;5.7;99.9;;;;;;;;;
2020/12/28 00:09:55;;;;;;;0.73;0.5;;;5.7;99.9;;;;;;;;;
2020/12/28 00:10:02;;;;;;;0.73;0.5;;;5.7;99.9;;;;;;;;;
2020/12/28 00:10:16;;;;;;;0.73;0.5;;;5.7;99.9;;;;;;;;;
2020/12/28 00:10:26;;;;;;;0.73;0.5;;;5.7;99.9;;;;;;;;;
2020/12/28 00:10:41;;;;;;;0.4;0.4;;;5.7;99.9;;;;;;;;;
2020/12/28 00:10:52;;;;;;;0.4;0.4;;;5.7;99.9;;;;;;;;;
2020/12/28 00:11:02;;;;;;;0.4;0.4;;;5.7;99.9;;;;;;;;;
2020/12/28 00:11:18;;;;;;;0.4;0.4;;;5.7;99.9;;;;;;;;;
2020/12/28 00:11:27;;;;;;;0.4;0.4;;;5.7;99.9;;;;;;;;;
2020/12/28 00:11:43;;;;;;;0.7;0.5;;;5.7;99.9;;;;;;;;;
2020/12/28 00:11:53;;;;;;;0.7;0.5;;;5.7;99.9;;;;;;;;;
2020/12/28 00:12:02;;;;;;;0.7;0.5;;;5.7;99.9;;;;;;;;;
2020/12/28 00:12:09;;;;;;;0.7;0.5;;;5.7;99.9;;;;;;;;;
2020/12/28 00:12:14;;;;;;;0.7;0.5;;;5.7;99.9;;;;;;;;;
2020/12/28 00:12:29;;;;;;;0.7;0.5;;;5.7;99.9;;;;;;;;;
2020/12/28 00:12:47;;;;;;;1.83;0.6;;;5.8;99.9;;;;;;;;;
2020/12/28 00:12:54;;;;;;;1.83;0.6;;;5.8;99.9;;;;;;;;;
2020/12/28 00:13:02;;;;;;;1.83;0.6;;;5.8;99.9;;;;;;;;;
2020/12/28 00:13:05;;;;;;;1.83;0.6;;;5.8;99.9;;;;;;;;;
2020/12/28 00:13:15;;;;;;;1.83;0.6;;;5.8;99.9;;;;;;;;;
2020/12/28 00:13:30;;;;;;;1.83;0.6;;;5.8;99.9;;;;;;;;;
2020/12/28 00:13:41;;;;;;;0.73;0.4;;;5.8;99.9;;;;;;;;;
2020/12/28 00:13:56;;;;;;;0.73;0.4;;;5.8;99.9;;;;;;;;;
2020/12/28 00:14:02;;;;;;;0.73;0.4;;;5.8;99.9;;;;;;;;;
2020/12/28 00:14:06;;;;;;;0.73;0.4;;;5.8;99.9;;;;;;;;;
2020/12/28 00:14:17;;;;;;;0.73;0.4;;;5.8;99.9;;;;;;;;;
2020/12/28 00:14:27;;;;;;;0.73;0.4;;;5.8;99.9;;;;;;;;;
2020/12/28 00:14:42;;;;;;;0.73;0.6;;;5.8;99.9;;;;;;;;;
2020/12/28 00:14:58;;;;;;;0.73;0.6;;;5.8;99.9;;;;;;;;;
2020/12/28 00:15:02;;;;;;;0.73;0.6;;;5.8;99.9;;;;;;;;;
2020/12/28 00:15:08;;;;;;;0.73;0.6;;;5.8;99.9;;;;;;;;;
2020/12/28 00:15:13;;;;;;;0.73;0.6;;;5.8;99.9;;;;;;;;;
2020/12/28 00:15:28;;;;;;;0.73;0.6;;;5.8;99.9;;;;;;;;;
2020/12/28 00:15:43;;;;;;;0.4;0.4;;;5.8;99.9;;;;;;;;;
2020/12/28 00:15:54;;;;;;;0.4;0.4;;;5.8;99.9;;;;;;;;;
2020/12/28 00:16:01;;;;;;;0.4;0.4;;;5.8;99.9;;;;;;;;;
2020/12/28 00:16:09;;;;;;;0.4;0.4;;;5.8;99.9;;;;;;;;;
2020/12/28 00:16:14;;;;;;;0.4;0.4;;;5.8;99.9;;;;;;;;;
2020/12/28 00:16:30;;;;;;;0.4;0.4;;;5.8;99.9;;;;;;;;;
2020/12/28 00:16:40;;;;;;;0.47;0.43;;;5.8;99.9;;;;;;;;;
2020/12/28 00:16:55;;;;;;;0.47;0.43;;;5.8;99.9;;;;;;;;;
2020/12/28 00:17:02;;;;;;;0.47;0.43;;;5.8;99.9;;;;;;;;;
2020/12/28 00:17:11;;;;;;;0.47;0.43;;;5.8;99.9;;;;;;;;;
2020/12/28 00:17:16;;;;;;;0.47;0.43;;;5.8;99.9;;;;;;;;;
2020/12/28 00:17:26;;;;;;;0.47;0.43;;;5.8;99.9;;;;;;;;;
2020/12/28 00:17:41;;;;;;;0.4;0.4;;;5.9;99.9;;;;;;;;;
2020/12/28 00:17:57;;;;;;;0.4;0.4;;;5.9;99.9;;;;;;;;;
2020/12/28 00:18:02;;;;;;;0.4;0.4;;;5.9;99.9;;;;;;;;;
2020/12/28 00:18:07;;;;;;;0.4;0.4;;;5.9;99.9;;;;;;;;;
2020/12/28 00:18:12;;;;;;;0.4;0.4;;;5.9;99.9;;;;;;;;;
2020/12/28 00:18:27;;;;;;;0.4;0.4;;;5.9;99.9;;;;;;;;;
2020/12/28 00:18:43;;;;;;;0.67;0.63;;;6;99.9;;;;;;;;;
2020/12/28 00:18:53;;;;;;;0.67;0.63;;;6;99.9;;;;;;;;;
2020/12/28 00:19:02;;;;;;;0.67;0.63;;;6;99.9;;;;;;;;;
2020/12/28 00:19:09;;;;;;;0.67;0.63;;;6;99.9;;;;;;;;;
2020/12/28 00:19:13;;;;;;;0.67;0.63;;;6;99.9;;;;;;;;;
2020/12/28 00:19:29;;;;;;;0.67;0.63;;;6;99.9;;;;;;;;;
2020/12/28 00:19:40;;;;;;;0.37;0.37;;;6;99.9;;;;;;;;;
2020/12/28 00:19:54;;;;;;;0.37;0.37;;;6;99.9;;;;;;;;;
2020/12/28 00:20:02;;;;;;;0.37;0.37;;;6;99.9;;;;;;;;;
2020/12/28 00:20:10;;;;;;;0.37;0.37;;;6;99.9;;;;;;;;;
2020/12/28 00:20:15;;;;;;;0.37;0.37;;;6;99.9;;;;;;;;;
2020/12/28 00:20:26;;;;;;;0.37;0.37;;;6;99.9;;;;;;;;;
2020/12/28 00:20:40;;;;;;;0.5;0.5;;;6;99.9;;;;;;;;;
2020/12/28 00:20:56;;;;;;;0.5;0.5;;;6;99.9;;;;;;;;;
2020/12/28 00:21:02;;;;;;;0.5;0.5;;;6;99.9;;;;;;;;;
2020/12/28 00:21:06;;;;;;;0.5;0.5;;;6;99.9;;;;;;;;;
2020/12/28 00:21:16;;;;;;;0.5;0.5;;;6;99.9;;;;;;;;;
2020/12/28 00:21:27;;;;;;;0.5;0.5;;;6;99.9;;;;;;;;;
2020/12/28 00:21:43;;;;;;;0.6;0.4;;;6;99.9;;;;;;;;;
2020/12/28 00:21:52;;;;;;;0.6;0.4;;;6;99.9;;;;;;;;;
2020/12/28 00:22:02;;;;;;;0.6;0.4;;;6;99.9;;;;;;;;;
2020/12/28 00:22:08;;;;;;;0.6;0.4;;;6;99.9;;;;;;;;;
2020/12/28 00:22:12;;;;;;;0.6;0.4;;;6;99.9;;;;;;;;;
2020/12/28 00:22:28;;;;;;;0.6;0.4;;;6;99.9;;;;;;;;;
2020/12/28 00:22:38;;;;;;;0.57;0.57;;;5.9;99.9;;;;;;;;;
2020/12/28 00:22:53;;;;;;;0.57;0.57;;;5.9;99.9;;;;;;;;;
2020/12/28 00:23:02;;;;;;;0.57;0.57;;;5.9;99.9;;;;;;;;;
2020/12/28 00:23:09;;;;;;;0.57;0.57;;;5.9;99.9;;;;;;;;;
2020/12/28 00:23:14;;;;;;;0.57;0.57;;;5.9;99.9;;;;;;;;;
2020/12/28 00:23:30;;;;;;;0.57;0.57;;;5.9;99.9;;;;;;;;;
2020/12/28 00:23:40;;;;;;;0.4;0.4;;;5.9;99.9;;;;;;;;;
2020/12/28 00:23:55;;;;;;;0.4;0.4;;;5.9;99.9;;;;;;;;;
2020/12/28 00:24:02;;;;;;;0.4;0.4;;;5.9;99.9;;;;;;;;;
2020/12/28 00:24:05;;;;;;;0.4;0.4;;;5.9;99.9;;;;;;;;;
2020/12/28 00:24:16;;;;;;;0.4;0.4;;;5.9;99.9;;;;;;;;;
2020/12/28 00:24:26;;;;;;;0.4;0.4;;;5.9;99.9;;;;;;;;;
2020/12/28 00:24:41;;;;;;;0.4;0.4;;;5.9;99.9;;;;;;;;;
2020/12/28 00:24:51;;;;;;;0.4;0.4;;;5.9;99.9;;;;;;;;;
2020/12/28 00:25:03;;;;;;;0.4;0.4;;;5.9;99.9;;;;;;;;;
2020/12/28 00:25:07;;;;;;;0.4;0.4;;;5.9;99.9;;;;;;;;;
2020/12/28 00:25:12;;;;;;;0.4;0.4;;;5.9;99.9;;;;;;;;;
2020/12/28 00:25:27;;;;;;;0.4;0.4;;;5.9;99.9;;;;;;;;;
2020/12/28 00:25:43;;;;;;;0.5;0.5;;;5.8;99.9;;;;;;;;;
2020/12/28 00:25:53;;;;;;;0.5;0.5;;;5.8;99.9;;;;;;;;;
2020/12/28 00:26:02;;;;;;;0.5;0.5;;;5.8;99.9;;;;;;;;;
2020/12/28 00:26:08;;;;;;;0.5;0.5;;;5.8;99.9;;;;;;;;;
2020/12/28 00:26:13;;;;;;;0.5;0.5;;;5.8;99.9;;;;;;;;;
2020/12/28 00:26:29;;;;;;;0.5;0.5;;;5.8;99.9;;;;;;;;;
2020/12/28 00:26:39;;;;;;;0.47;0.47;;;5.8;99.9;;;;;;;;;
2020/12/28 00:26:54;;;;;;;0.47;0.47;;;5.8;99.9;;;;;;;;;
2020/12/28 00:27:02;;;;;;;0.47;0.47;;;5.8;99.9;;;;;;;;;
2020/12/28 00:27:05;;;;;;;0.47;0.47;;;5.8;99.9;;;;;;;;;
2020/12/28 00:27:15;;;;;;;0.47;0.47;;;5.8;99.9;;;;;;;;;
2020/12/28 00:27:25;;;;;;;0.47;0.47;;;5.8;99.9;;;;;;;;;
2020/12/28 00:27:41;;;;;;;0.4;0.4;;;5.9;99.9;;;;;;;;;
2020/12/28 00:27:56;;;;;;;0.4;0.4;;;5.9;99.9;;;;;;;;;
2020/12/28 00:28:02;;;;;;;0.4;0.4;;;5.9;99.9;;;;;;;;;
2020/12/28 00:28:06;;;;;;;0.4;0.4;;;5.9;99.9;;;;;;;;;
2020/12/28 00:28:16;;;;;;;0.4;0.4;;;5.9;99.9;;;;;;;;;
2020/12/28 00:28:27;;;;;;;0.4;0.4;;;5.9;99.9;;;;;;;;;
2020/12/28 00:28:48;;;;;;;0.6;0.57;;;5.8;99.9;;;;;;;;;
2020/12/28 00:28:52;;;;;;;0.6;0.57;;;5.8;99.9;;;;;;;;;
2020/12/28 00:29:02;;;;;;;0.6;0.57;;;5.8;99.9;;;;;;;;;
2020/12/28 00:29:07;;;;;;;0.6;0.57;;;5.8;99.9;;;;;;;;;
2020/12/28 00:29:13;;;;;;;0.6;0.57;;;5.8;99.9;;;;;;;;;
2020/12/28 00:29:28;;;;;;;0.6;0.57;;;5.8;99.9;;;;;;;;;
2020/12/28 00:29:38;;;;;;;0.4;0.4;;;5.9;99.9;;;;;;;;;
2020/12/28 00:29:53;;;;;;;0.4;0.4;;;5.9;99.9;;;;;;;;;
2020/12/28 00:30:02;;;;;;;0.4;0.4;;;5.9;99.9;;;;;;;;;
2020/12/28 00:30:09;;;;;;;0.4;0.4;;;5.9;99.9;;;;;;;;;
2020/12/28 00:30:14;;;;;;;0.4;0.4;;;5.9;99.9;;;;;;;;;
2020/12/28 00:30:31;;;;;;;0.4;0.4;;;5.9;99.9;;;;;;;;;
2020/12/28 00:30:39;;;;;;;0.4;0.4;;;5.9;99.9;;;;;;;;;
2020/12/28 00:31:00;;;;;;;0.4;0.4;;;5.9;99.9;;;;;;;;;
2020/12/28 00:31:01;;;;;;;0.4;0.4;;;5.9;99.9;;;;;;;;;
2020/12/28 00:31:05;;;;;;;0.4;0.4;;;5.9;99.9;;;;;;;;;
2020/12/28 00:31:15;;;;;;;0.4;0.4;;;5.9;99.9;;;;;;;;;
2020/12/28 00:31:26;;;;;;;0.4;0.4;;;5.9;99.9;;;;;;;;;
2020/12/28 00:31:41;;;;;;;0.6;0.4;;;5.9;99.9;;;;;;;;;
2020/12/28 00:31:51;;;;;;;0.6;0.4;;;5.9;99.9;;;;;;;;;
2020/12/28 00:32:02;;;;;;;0.6;0.4;;;5.9;99.9;;;;;;;;;
2020/12/28 00:32:06;;;;;;;0.6;0.4;;;5.9;99.9;;;;;;;;;
2020/12/28 00:32:17;;;;;;;0.6;0.4;;;5.9;99.9;;;;;;;;;
2020/12/28 00:32:27;;;;;;;0.6;0.4;;;5.9;99.9;;;;;;;;;
2020/12/28 00:32:42;;;;;;;0.5;0.5;;;5.8;99.9;;;;;;;;;
2020/12/28 00:32:53;;;;;;;0.5;0.5;;;5.8;99.9;;;;;;;;;
2020/12/28 00:33:01;;;;;;;0.5;0.5;;;5.8;99.9;;;;;;;;;
2020/12/28 00:33:14;;;;;;;0.5;0.5;;;5.8;99.9;;;;;;;;;
2020/12/28 00:33:14;;;;;;;0.5;0.5;;;5.8;99.9;;;;;;;;;
2020/12/28 00:33:29;;;;;;;0.5;0.5;;;5.8;99.9;;;;;;;;;
2020/12/28 00:33:39;;;;;;;0.7;0.6;;;5.9;99.9;;;;;;;;;
2020/12/28 00:33:54;;;;;;;0.7;0.6;;;5.9;99.9;;;;;;;;;
2020/12/28 00:34:02;;;;;;;0.7;0.6;;;5.9;99.9;;;;;;;;;
2020/12/28 00:34:04;;;;;;;0.7;0.6;;;5.9;99.9;;;;;;;;;
2020/12/28 00:34:15;;;;;;;0.7;0.6;;;5.9;99.9;;;;;;;;;
2020/12/28 00:34:30;;;;;;;0.7;0.6;;;5.9;99.9;;;;;;;;;
2020/12/28 00:34:40;;;;;;;0.3;0.3;;;6;99.9;;;;;;;;;
2020/12/28 00:34:55;;;;;;;0.3;0.3;;;6;99.9;;;;;;;;;
2020/12/28 00:35:02;;;;;;;0.3;0.3;;;6;99.9;;;;;;;;;
2020/12/28 00:35:06;;;;;;;0.3;0.3;;;6;99.9;;;;;;;;;
2020/12/28 00:35:16;;;;;;;0.3;0.3;;;6;99.9;;;;;;;;;
2020/12/28 00:35:26;;;;;;;0.3;0.3;;;6;99.9;;;;;;;;;
2020/12/28 00:35:42;;;;;;;0.63;0.4;;;6;99.9;;;;;;;;;
2020/12/28 00:35:52;;;;;;;0.63;0.4;;;6;99.9;;;;;;;;;
2020/12/28 00:36:02;;;;;;;0.63;0.4;;;6;99.9;;;;;;;;;
2020/12/28 00:36:07;;;;;;;0.63;0.4;;;6;99.9;;;;;;;;;
2020/12/28 00:36:17;;;;;;;0.63;0.4;;;6;99.9;;;;;;;;;
2020/12/28 00:36:28;;;;;;;0.63;0.4;;;6;99.9;;;;;;;;;
2020/12/28 00:36:43;;;;;;;0.43;0.4;;;6;99.9;;;;;;;;;
2020/12/28 00:36:53;;;;;;;0.43;0.4;;;6;99.9;;;;;;;;;
2020/12/28 00:37:02;;;;;;;0.43;0.4;;;6;99.9;;;;;;;;;
2020/12/28 00:37:09;;;;;;;0.43;0.4;;;6;99.9;;;;;;;;;
2020/12/28 00:37:14;;;;;;;0.43;0.4;;;6;99.9;;;;;;;;;
2020/12/28 00:37:29;;;;;;;0.43;0.4;;;6;99.9;;;;;;;;;
2020/12/28 00:37:39;;;;;;;1.5;0.6;;;5.8;99.9;;;;;;;;;
2020/12/28 00:37:55;;;;;;;1.5;0.6;;;5.8;99.9;;;;;;;;;
2020/12/28 00:38:01;;;;;;;1.5;0.6;;;5.8;99.9;;;;;;;;;
2020/12/28 00:38:05;;;;;;;1.5;0.6;;;5.8;99.9;;;;;;;;;
2020/12/28 00:38:15;;;;;;;1.5;0.6;;;5.8;99.9;;;;;;;;;
2020/12/28 00:38:31;;;;;;;1.5;0.6;;;5.8;99.9;;;;;;;;;
2020/12/28 00:38:41;;;;;;;0.63;0.5;;;5.9;99.9;;;;;;;;;
2020/12/28 00:38:57;;;;;;;0.63;0.5;;;5.9;99.9;;;;;;;;;
2020/12/28 00:39:02;;;;;;;0.63;0.5;;;5.9;99.9;;;;;;;;;
2020/12/28 00:39:06;;;;;;;0.63;0.5;;;5.9;99.9;;;;;;;;;
2020/12/28 00:39:17;;;;;;;0.63;0.5;;;5.9;99.9;;;;;;;;;
2020/12/28 00:39:27;;;;;;;0.63;0.5;;;5.9;99.9;;;;;;;;;
2020/12/28 00:39:42;;;;;;;0.7;0.5;;;5.9;99.9;;;;;;;;;
2020/12/28 00:39:52;;;;;;;0.7;0.5;;;5.9;99.9;;;;;;;;;
2020/12/28 00:40:01;;;;;;;0.7;0.5;;;5.9;99.9;;;;;;;;;
2020/12/28 00:40:08;;;;;;;0.7;0.5;;;5.9;99.9;;;;;;;;;
2020/12/28 00:40:14;;;;;;;0.7;0.5;;;5.9;99.9;;;;;;;;;
2020/12/28 00:40:28;;;;;;;0.7;0.5;;;5.9;99.9;;;;;;;;;
2020/12/28 00:40:44;;;;;;;1.07;0.53;;;5.9;99.9;;;;;;;;;
2020/12/28 00:40:54;;;;;;;1.07;0.53;;;5.9;99.9;;;;;;;;;
2020/12/28 00:41:01;;;;;;;1.07;0.53;;;5.9;99.9;;;;;;;;;
2020/12/28 00:41:09;;;;;;;1.07;0.53;;;5.9;99.9;;;;;;;;;
2020/12/28 00:41:14;;;;;;;1.07;0.53;;;5.9;99.9;;;;;;;;;
2020/12/28 00:41:30;;;;;;;1.07;0.53;;;5.9;99.9;;;;;;;;;
2020/12/28 00:41:40;;;;;;;0.4;0.4;;;5.8;99.9;;;;;;;;;
2020/12/28 00:41:56;;;;;;;0.4;0.4;;;5.8;99.9;;;;;;;;;
2020/12/28 00:42:02;;;;;;;0.4;0.4;;;5.8;99.9;;;;;;;;;
2020/12/28 00:42:06;;;;;;;0.4;0.4;;;5.8;99.9;;;;;;;;;
2020/12/28 00:42:16;;;;;;;0.4;0.4;;;5.8;99.9;;;;;;;;;
2020/12/28 00:42:26;;;;;;;0.4;0.4;;;5.8;99.9;;;;;;;;;
2020/12/28 00:42:42;;;;;;;0.4;0.4;;;5.8;99.9;;;;;;;;;
2020/12/28 00:42:57;;;;;;;0.4;0.4;;;5.8;99.9;;;;;;;;;
2020/12/28 00:43:01;;;;;;;0.4;0.4;;;5.8;99.9;;;;;;;;;
2020/12/28 00:43:07;;;;;;;0.4;0.4;;;5.8;99.9;;;;;;;;;
2020/12/28 00:43:12;;;;;;;0.4;0.4;;;5.8;99.9;;;;;;;;;
2020/12/28 00:43:27;;;;;;;0.4;0.4;;;5.8;99.9;;;;;;;;;
2020/12/28 00:43:43;;;;;;;0.4;0.4;;;5.8;99.9;;;;;;;;;
2020/12/28 00:43:53;;;;;;;0.4;0.4;;;5.8;99.9;;;;;;;;;
2020/12/28 00:44:02;;;;;;;0.4;0.4;;;5.8;99.9;;;;;;;;;
2020/12/28 00:44:08;;;;;;;0.4;0.4;;;5.8;99.9;;;;;;;;;
2020/12/28 00:44:13;;;;;;;0.4;0.4;;;5.8;99.9;;;;;;;;;
2020/12/28 00:44:29;;;;;;;0.4;0.4;;;5.8;99.9;;;;;;;;;
2020/12/28 00:44:39;;;;;;;0.4;0.4;;;5.8;99.9;;;;;;;;;
2020/12/28 00:44:54;;;;;;;0.4;0.4;;;5.8;99.9;;;;;;;;;
2020/12/28 00:45:02;;;;;;;0.4;0.4;;;5.8;99.9;;;;;;;;;
2020/12/28 00:45:10;;;;;;;0.4;0.4;;;5.8;99.9;;;;;;;;;
2020/12/28 00:45:15;;;;;;;0.4;0.4;;;5.8;99.9;;;;;;;;;
2020/12/28 00:45:25;;;;;;;0.4;0.4;;;5.8;99.9;;;;;;;;;
2020/12/28 00:45:41;;;;;;;0.4;0.4;;;5.7;99.9;;;;;;;;;
2020/12/28 00:45:56;;;;;;;0.4;0.4;;;5.7;99.9;;;;;;;;;
2020/12/28 00:46:02;;;;;;;0.4;0.4;;;5.7;99.9;;;;;;;;;
2020/12/28 00:46:07;;;;;;;0.4;0.4;;;5.7;99.9;;;;;;;;;
2020/12/28 00:46:16;;;;;;;0.4;0.4;;;5.7;99.9;;;;;;;;;
2020/12/28 00:46:27;;;;;;;0.4;0.4;;;5.7;99.9;;;;;;;;;
2020/12/28 00:46:42;;;;;;;0.4;0.4;;;5.7;99.9;;;;;;;;;
2020/12/28 00:46:52;;;;;;;0.4;0.4;;;5.7;99.9;;;;;;;;;
2020/12/28 00:47:02;;;;;;;0.4;0.4;;;5.7;99.9;;;;;;;;;
2020/12/28 00:47:08;;;;;;;0.4;0.4;;;5.7;99.9;;;;;;;;;
2020/12/28 00:47:14;;;;;;;0.4;0.4;;;5.7;99.9;;;;;;;;;
2020/12/28 00:47:28;;;;;;;0.4;0.4;;;5.7;99.9;;;;;;;;;
2020/12/28 00:47:38;;;;;;;0.4;0.4;;;5.7;99.9;;;;;;;;;
2020/12/28 00:47:54;;;;;;;0.87;0.5;;;5.6;99.9;;;;;;;;;
2020/12/28 00:48:02;;;;;;;0.87;0.5;;;5.6;99.9;;;;;;;;;
2020/12/28 00:48:09;;;;;;;0.87;0.5;;;5.6;99.9;;;;;;;;;
2020/12/28 00:48:19;;;;;;;0.87;0.5;;;5.6;99.9;;;;;;;;;
2020/12/28 00:48:30;;;;;;;0.87;0.5;;;5.6;99.9;;;;;;;;;
2020/12/28 00:48:40;;;;;;;0.87;0.5;;;5.6;99.9;;;;;;;;;
2020/12/28 00:48:56;;;;;;;0.63;0.6;;;5.7;99.9;;;;;;;;;
2020/12/28 00:49:02;;;;;;;0.63;0.6;;;5.7;99.9;;;;;;;;;
2020/12/28 00:49:05;;;;;;;0.63;0.6;;;5.7;99.9;;;;;;;;;
2020/12/28 00:49:16;;;;;;;0.63;0.6;;;5.7;99.9;;;;;;;;;
2020/12/28 00:49:26;;;;;;;0.63;0.6;;;5.7;99.9;;;;;;;;;
2020/12/28 00:49:42;;;;;;;0.4;0.4;;;5.7;99.9;;;;;;;;;
2020/12/28 00:49:51;;;;;;;0.4;0.4;;;5.7;99.9;;;;;;;;;
2020/12/28 00:50:01;;;;;;;0.4;0.4;;;5.7;99.9;;;;;;;;;
2020/12/28 00:50:07;;;;;;;0.4;0.4;;;5.7;99.9;;;;;;;;;
2020/12/28 00:50:12;;;;;;;0.4;0.4;;;5.7;99.9;;;;;;;;;
2020/12/28 00:50:33;;;;;;;0.4;0.4;;;5.7;99.9;;;;;;;;;
2020/12/28 00:50:43;;;;;;;0.5;0.5;;;5.7;99.9;;;;;;;;;
2020/12/28 00:50:53;;;;;;;0.5;0.5;;;5.7;99.9;;;;;;;;;
2020/12/28 00:51:02;;;;;;;0.5;0.5;;;5.7;99.9;;;;;;;;;
2020/12/28 00:51:08;;;;;;;0.5;0.5;;;5.7;99.9;;;;;;;;;
2020/12/28 00:51:13;;;;;;;0.5;0.5;;;5.7;99.9;;;;;;;;;
2020/12/28 00:51:29;;;;;;;0.5;0.5;;;5.7;99.9;;;;;;;;;
2020/12/28 00:51:39;;;;;;;0.5;0.5;;;5.7;99.9;;;;;;;;;
2020/12/28 00:51:55;;;;;;;0.4;0.33;;;5.7;99.9;;;;;;;;;
2020/12/28 00:52:02;;;;;;;0.4;0.33;;;5.7;99.9;;;;;;;;;
2020/12/28 00:52:05;;;;;;;0.4;0.33;;;5.7;99.9;;;;;;;;;
2020/12/28 00:52:15;;;;;;;0.4;0.33;;;5.7;99.9;;;;;;;;;
2020/12/28 00:52:25;;;;;;;0.4;0.33;;;5.7;99.9;;;;;;;;;
2020/12/28 00:52:46;;;;;;;0.6;0.5;;;5.7;99.9;;;;;;;;;
2020/12/28 00:52:56;;;;;;;0.6;0.5;;;5.7;99.9;;;;;;;;;
2020/12/28 00:53:01;;;;;;;0.6;0.5;;;5.7;99.9;;;;;;;;;
2020/12/28 00:53:08;;;;;;;0.6;0.5;;;5.7;99.9;;;;;;;;;
2020/12/28 00:53:16;;;;;;;0.6;0.5;;;5.7;99.9;;;;;;;;;
2020/12/28 00:53:28;;;;;;;0.6;0.5;;;5.7;99.9;;;;;;;;;
2020/12/28 00:53:42;;;;;;;0.6;0.5;;;5.7;99.9;;;;;;;;;
2020/12/28 00:53:52;;;;;;;0.3;0.3;;;5.7;99.9;;;;;;;;;
2020/12/28 00:54:02;;;;;;;0.3;0.3;;;5.7;99.9;;;;;;;;;
2020/12/28 00:54:08;;;;;;;0.3;0.3;;;5.7;99.9;;;;;;;;;
2020/12/28 00:54:13;;;;;;;0.3;0.3;;;5.7;99.9;;;;;;;;;
2020/12/28 00:54:28;;;;;;;0.3;0.3;;;5.7;99.9;;;;;;;;;
2020/12/28 00:54:38;;;;;;;0.3;0.3;;;5.7;99.9;;;;;;;;;
2020/12/28 00:54:59;;;;;;;0.37;0.37;;;5.7;99.9;;;;;;;;;
2020/12/28 00:55:01;;;;;;;0.37;0.37;;;5.7;99.9;;;;;;;;;
2020/12/28 00:55:09;;;;;;;0.37;0.37;;;5.7;99.9;;;;;;;;;
2020/12/28 00:55:14;;;;;;;0.37;0.37;;;5.7;99.9;;;;;;;;;
2020/12/28 00:55:29;;;;;;;0.37;0.37;;;5.7;99.9;;;;;;;;;
2020/12/28 00:55:40;;;;;;;0.37;0.37;;;5.7;99.9;;;;;;;;;
2020/12/28 00:55:55;;;;;;;0.5;0.5;;;5.7;99.9;;;;;;;;;
2020/12/28 00:56:02;;;;;;;0.5;0.5;;;5.7;99.9;;;;;;;;;
2020/12/28 00:56:05;;;;;;;0.5;0.5;;;5.7;99.9;;;;;;;;;
2020/12/28 00:56:16;;;;;;;0.5;0.5;;;5.7;99.9;;;;;;;;;
2020/12/28 00:56:26;;;;;;;0.5;0.5;;;5.7;99.9;;;;;;;;;
2020/12/28 00:56:41;;;;;;;0.5;0.5;;;5.7;99.9;;;;;;;;;
2020/12/28 00:56:51;;;;;;;0.6;0.6;;;5.8;99.9;;;;;;;;;
2020/12/28 00:57:02;;;;;;;0.6;0.6;;;5.8;99.9;;;;;;;;;
2020/12/28 00:57:12;;;;;;;0.6;0.6;;;5.8;99.9;;;;;;;;;
2020/12/28 00:57:12;;;;;;;0.6;0.6;;;5.8;99.9;;;;;;;;;
2020/12/28 00:57:27;;;;;;;0.6;0.6;;;5.8;99.9;;;;;;;;;
2020/12/28 00:57:43;;;;;;;0.6;0.6;;;5.8;99.9;;;;;;;;;
2020/12/28 00:57:53;;;;;;;0.5;0.5;;;5.8;99.9;;;;;;;;;
2020/12/28 00:58:02;;;;;;;0.5;0.5;;;5.8;99.9;;;;;;;;;
2020/12/28 00:58:08;;;;;;;0.5;0.5;;;5.8;99.9;;;;;;;;;
2020/12/28 00:58:13;;;;;;;0.5;0.5;;;5.8;99.9;;;;;;;;;
2020/12/28 00:58:29;;;;;;;0.5;0.5;;;5.8;99.9;;;;;;;;;
2020/12/28 00:58:39;;;;;;;0.5;0.5;;;5.8;99.9;;;;;;;;;
2020/12/28 00:58:54;;;;;;;0.4;0.4;;;5.9;99.9;;;;;;;;;
2020/12/28 00:59:02;;;;;;;0.4;0.4;;;5.9;99.9;;;;;;;;;
2020/12/28 00:59:05;;;;;;;0.4;0.4;;;5.9;99.9;;;;;;;;;
2020/12/28 00:59:15;;;;;;;0.4;0.4;;;5.9;99.9;;;;;;;;;
2020/12/28 00:59:25;;;;;;;0.4;0.4;;;5.9;99.9;;;;;;;;;
2020/12/28 00:59:41;;;;;;;0.4;0.4;;;5.9;99.9;;;;;;;;;
2020/12/28 00:59:56;;;;;;;0.4;0.4;;;5.9;99.9;;;;;;;;;
2020/12/28 01:00:01;;;;;;;0.4;0.4;;;5.9;99.9;;;;;;;;;
2020/12/28 01:00:06;;;;;;;0.4;0.4;;;5.9;99.9;;;;;;;;;
2020/12/28 01:00:16;;;;;;;0.4;0.4;;;5.9;99.9;;;;;;;;;
2020/12/28 01:00:26;;;;;;;0.4;0.4;;;5.9;99.9;;;;;;;;;
2020/12/28 01:00:42;;;;;;;0.4;0.4;;;5.9;99.9;;;;;;;;;
2020/12/28 01:00:52;;;;;;;0.4;0.4;;;5.9;99.9;;;;;;;;;
2020/12/28 01:01:02;;;;;;;0.4;0.4;;;5.9;99.9;;;;;;;;;
2020/12/28 01:01:08;;;;;;;0.4;0.4;;;5.9;99.9;;;;;;;;;
2020/12/28 01:01:13;;;;;;;0.4;0.4;;;5.9;99.9;;;;;;;;;
2020/12/28 01:01:28;;;;;;;0.4;0.4;;;5.9;99.9;;;;;;;;;
2020/12/28 01:01:38;;;;;;;0.4;0.4;;;5.9;99.9;;;;;;;;;
2020/12/28 01:01:53;;;;;;;0.6;0.5;;;5.8;99.9;;;;;;;;;
2020/12/28 01:02:02;;;;;;;0.6;0.5;;;5.8;99.9;;;;;;;;;
2020/12/28 01:02:09;;;;;;;0.6;0.5;;;5.8;99.9;;;;;;;;;
2020/12/28 01:02:14;;;;;;;0.6;0.5;;;5.8;99.9;;;;;;;;;
2020/12/28 01:02:29;;;;;;;0.6;0.5;;;5.8;99.9;;;;;;;;;
2020/12/28 01:02:39;;;;;;;0.6;0.5;;;5.8;99.9;;;;;;;;;
2020/12/28 01:02:56;;;;;;;0.3;0.3;;;5.9;99.9;;;;;;;;;
2020/12/28 01:03:02;;;;;;;0.3;0.3;;;5.9;99.9;;;;;;;;;
2020/12/28 01:03:05;;;;;;;0.3;0.3;;;5.9;99.9;;;;;;;;;
2020/12/28 01:03:15;;;;;;;0.3;0.3;;;5.9;99.9;;;;;;;;;
2020/12/28 01:03:26;;;;;;;0.3;0.3;;;5.9;99.9;;;;;;;;;
2020/12/28 01:03:41;;;;;;;0.3;0.3;;;5.9;99.9;;;;;;;;;
2020/12/28 01:03:51;;;;;;;0.3;0.3;;;5.9;99.9;;;;;;;;;
2020/12/28 01:04:02;;;;;;;0.3;0.3;;;5.9;99.9;;;;;;;;;
2020/12/28 01:04:06;;;;;;;0.3;0.3;;;5.9;99.9;;;;;;;;;
2020/12/28 01:04:17;;;;;;;0.3;0.3;;;5.9;99.9;;;;;;;;;
2020/12/28 01:04:27;;;;;;;0.3;0.3;;;5.9;99.9;;;;;;;;;
2020/12/28 01:04:42;;;;;;;0.3;0.3;;;5.9;99.9;;;;;;;;;
2020/12/28 01:04:53;;;;;;;0.5;0.5;;;5.9;99.9;;;;;;;;;
2020/12/28 01:05:01;;;;;;;0.5;0.5;;;5.9;99.9;;;;;;;;;
2020/12/28 01:05:08;;;;;;;0.5;0.5;;;5.9;99.9;;;;;;;;;
2020/12/28 01:05:13;;;;;;;0.5;0.5;;;5.9;99.9;;;;;;;;;
2020/12/28 01:05:28;;;;;;;0.5;0.5;;;5.9;99.9;;;;;;;;;
2020/12/28 01:05:39;;;;;;;0.5;0.5;;;5.9;99.9;;;;;;;;;
2020/12/28 01:05:54;;;;;;;0.5;0.33;;;5.9;99.9;;;;;;;;;
2020/12/28 01:06:02;;;;;;;0.5;0.33;;;5.9;99.9;;;;;;;;;
2020/12/28 01:06:04;;;;;;;0.5;0.33;;;5.9;99.9;;;;;;;;;
2020/12/28 01:06:14;;;;;;;0.5;0.33;;;5.9;99.9;;;;;;;;;
2020/12/28 01:06:30;;;;;;;0.5;0.33;;;5.9;99.9;;;;;;;;;
2020/12/28 01:06:40;;;;;;;0.5;0.33;;;5.9;99.9;;;;;;;;;
2020/12/28 01:06:55;;;;;;;0.73;0.47;;;5.9;99.9;;;;;;;;;
2020/12/28 01:07:02;;;;;;;0.73;0.47;;;5.9;99.9;;;;;;;;;
2020/12/28 01:07:06;;;;;;;0.73;0.47;;;5.9;99.9;;;;;;;;;
2020/12/28 01:07:16;;;;;;;0.73;0.47;;;5.9;99.9;;;;;;;;;
2020/12/28 01:07:26;;;;;;;0.73;0.47;;;5.9;99.9;;;;;;;;;
2020/12/28 01:07:42;;;;;;;0.73;0.47;;;5.9;99.9;;;;;;;;;
2020/12/28 01:07:52;;;;;;;0.4;0.4;;;5.9;99.9;;;;;;;;;
2020/12/28 01:08:02;;;;;;;0.4;0.4;;;5.9;99.9;;;;;;;;;
2020/12/28 01:08:07;;;;;;;0.4;0.4;;;5.9;99.9;;;;;;;;;
2020/12/28 01:08:12;;;;;;;0.4;0.4;;;5.9;99.9;;;;;;;;;
2020/12/28 01:08:28;;;;;;;0.4;0.4;;;5.9;99.9;;;;;;;;;
2020/12/28 01:08:43;;;;;;;0.4;0.4;;;5.9;99.9;;;;;;;;;
2020/12/28 01:08:54;;;;;;;0.4;0.4;;;5.9;99.9;;;;;;;;;
2020/12/28 01:09:04;;;;;;;0.4;0.4;;;5.9;99.9;;;;;;;;;
2020/12/28 01:09:09;;;;;;;0.4;0.4;;;5.9;99.9;;;;;;;;;
2020/12/28 01:09:14;;;;;;;0.4;0.4;;;5.9;99.9;;;;;;;;;
2020/12/28 01:09:29;;;;;;;0.4;0.4;;;5.9;99.9;;;;;;;;;
2020/12/28 01:09:39;;;;;;;0.4;0.4;;;5.9;99.9;;;;;;;;;
2020/12/28 01:09:55;;;;;;;0.3;0.3;;;6;99.9;;;;;;;;;
2020/12/28 01:10:01;;;;;;;0.3;0.3;;;6;99.9;;;;;;;;;
2020/12/28 01:10:05;;;;;;;0.3;0.3;;;6;99.9;;;;;;;;;
2020/12/28 01:10:16;;;;;;;0.3;0.3;;;6;99.9;;;;;;;;;
2020/12/28 01:10:25;;;;;;;0.3;0.3;;;6;99.9;;;;;;;;;
2020/12/28 01:10:41;;;;;;;0.3;0.3;;;6;99.9;;;;;;;;;
2020/12/28 01:10:56;;;;;;;0.4;0.4;;;6;99.9;;;;;;;;;
2020/12/28 01:11:02;;;;;;;0.4;0.4;;;6;99.9;;;;;;;;;
2020/12/28 01:11:07;;;;;;;0.4;0.4;;;6;99.9;;;;;;;;;
2020/12/28 01:11:18;;;;;;;0.4;0.4;;;6;99.9;;;;;;;;;
2020/12/28 01:11:27;;;;;;;0.4;0.4;;;6;99.9;;;;;;;;;
2020/12/28 01:11:42;;;;;;;0.4;0.4;;;6;99.9;;;;;;;;;
2020/12/28 01:11:52;;;;;;;0.57;0.47;;;6;99.9;;;;;;;;;
2020/12/28 01:12:01;;;;;;;0.57;0.47;;;6;99.9;;;;;;;;;
2020/12/28 01:12:08;;;;;;;0.57;0.47;;;6;99.9;;;;;;;;;
2020/12/28 01:12:13;;;;;;;0.57;0.47;;;6;99.9;;;;;;;;;
2020/12/28 01:12:28;;;;;;;0.57;0.47;;;6;99.9;;;;;;;;;
2020/12/28 01:12:39;;;;;;;0.57;0.47;;;6;99.9;;;;;;;;;
2020/12/28 01:12:54;;;;;;;0.5;0.43;;;5.9;99.9;;;;;;;;;
2020/12/28 01:13:02;;;;;;;0.5;0.43;;;5.9;99.9;;;;;;;;;
2020/12/28 01:13:10;;;;;;;0.5;0.43;;;5.9;99.9;;;;;;;;;
2020/12/28 01:13:14;;;;;;;0.5;0.43;;;5.9;99.9;;;;;;;;;
2020/12/28 01:13:30;;;;;;;0.5;0.43;;;5.9;99.9;;;;;;;;;
2020/12/28 01:13:40;;;;;;;0.5;0.43;;;5.9;99.9;;;;;;;;;
2020/12/28 01:13:57;;;;;;;0.5;0.5;;;5.9;99.9;;;;;;;;;
2020/12/28 01:14:02;;;;;;;0.5;0.5;;;5.9;99.9;;;;;;;;;
2020/12/28 01:14:06;;;;;;;0.5;0.5;;;5.9;99.9;;;;;;;;;
2020/12/28 01:14:16;;;;;;;0.5;0.5;;;5.9;99.9;;;;;;;;;
2020/12/28 01:14:26;;;;;;;0.5;0.5;;;5.9;99.9;;;;;;;;;
2020/12/28 01:14:42;;;;;;;0.5;0.5;;;5.9;99.9;;;;;;;;;
2020/12/28 01:14:52;;;;;;;0.53;0.53;;;6;99.9;;;;;;;;;
2020/12/28 01:15:01;;;;;;;0.53;0.53;;;6;99.9;;;;;;;;;
2020/12/28 01:15:07;;;;;;;0.53;0.53;;;6;99.9;;;;;;;;;
2020/12/28 01:15:12;;;;;;;0.53;0.53;;;6;99.9;;;;;;;;;
2020/12/28 01:15:27;;;;;;;0.53;0.53;;;6;99.9;;;;;;;;;
2020/12/28 01:15:43;;;;;;;0.53;0.53;;;6;99.9;;;;;;;;;
2020/12/28 01:15:53;;;;;;;0.4;0.4;;;6;99.9;;;;;;;;;
2020/12/28 01:16:02;;;;;;;0.4;0.4;;;6;99.9;;;;;;;;;
2020/12/28 01:16:08;;;;;;;0.4;0.4;;;6;99.9;;;;;;;;;
2020/12/28 01:16:14;;;;;;;0.4;0.4;;;6;99.9;;;;;;;;;
2020/12/28 01:16:30;;;;;;;0.4;0.4;;;6;99.9;;;;;;;;;
2020/12/28 01:16:40;;;;;;;0.4;0.4;;;6;99.9;;;;;;;;;
2020/12/28 01:16:54;;;;;;;0.3;0.3;;;6;99.9;;;;;;;;;
2020/12/28 01:17:02;;;;;;;0.3;0.3;;;6;99.9;;;;;;;;;
2020/12/28 01:17:05;;;;;;;0.3;0.3;;;6;99.9;;;;;;;;;
2020/12/28 01:17:15;;;;;;;0.3;0.3;;;6;99.9;;;;;;;;;
2020/12/28 01:17:25;;;;;;;0.3;0.3;;;6;99.9;;;;;;;;;
2020/12/28 01:17:41;;;;;;;0.3;0.3;;;6;99.9;;;;;;;;;
2020/12/28 01:17:56;;;;;;;0.7;0.4;;;6;99.9;;;;;;;;;
2020/12/28 01:18:02;;;;;;;0.7;0.4;;;6;99.9;;;;;;;;;
2020/12/28 01:18:07;;;;;;;0.7;0.4;;;6;99.9;;;;;;;;;
2020/12/28 01:18:22;;;;;;;0.7;0.4;;;6;99.9;;;;;;;;;
2020/12/28 01:18:27;;;;;;;0.7;0.4;;;6;99.9;;;;;;;;;